createdAt,value
2022-08-06T00:00:07.945Z,100805.00
2022-08-06T00:02:42.254Z,100827.00
2022-08-06T00:05:17.438Z,100836.00
2022-08-06T00:07:48.362Z,100830.00
2022-08-06T00:10:18.828Z,100825.00
2022-08-06T00:12:48.805Z,100828.00
2022-08-06T00:16:06.226Z,100822.00
2022-08-06T00:18:08.786Z,100832.00
2022-08-06T00:20:42.874Z,100834.00
2022-08-06T00:23:16.594Z,100849.00
2022-08-06T00:25:52.139Z,100857.00
2022-08-06T00:28:30.360Z,100844.00
2022-08-06T00:31:00.907Z,100834.00
2022-08-06T00:33:44.441Z,100845.00
2022-08-06T00:36:25.151Z,100833.00
2022-08-06T00:38:57.521Z,100832.00
2022-08-06T00:41:35.438Z,100816.00
2022-08-06T00:44:12.684Z,100812.00
2022-08-06T00:46:43.355Z,100816.00
2022-08-06T00:49:13.577Z,100817.00
2022-08-06T00:52:03.751Z,100810.00
2022-08-06T00:54:35.762Z,100795.00
2022-08-06T00:57:08.048Z,100797.00
2022-08-06T00:59:43.336Z,100797.00
2022-08-06T01:02:14.666Z,100800.00
2022-08-06T01:04:43.589Z,100821.00
2022-08-06T01:07:13.538Z,100820.00
2022-08-06T01:09:57.186Z,100838.00
2022-08-06T01:12:33.526Z,100848.00
2022-08-06T01:15:15.288Z,100851.00
2022-08-06T01:17:58.093Z,100850.00
2022-08-06T01:21:56.582Z,100854.00
2022-08-06T01:23:53.451Z,100867.00
2022-08-06T01:26:34.942Z,100858.00
2022-08-06T01:29:14.507Z,100867.00
2022-08-06T01:31:51.046Z,100876.00
2022-08-06T01:34:31.381Z,100877.00
2022-08-06T01:37:07.277Z,100879.00
2022-08-06T01:39:53.540Z,100892.00
2022-08-06T01:42:37.759Z,100889.00
2022-08-06T01:45:13.438Z,100888.00
2022-08-06T01:47:53.618Z,100887.00
2022-08-06T01:50:30.357Z,100890.00
2022-08-06T01:53:02.490Z,100892.00
2022-08-06T01:55:56.406Z,100892.00
2022-08-06T01:58:30.193Z,100889.00
2022-08-06T02:01:02.146Z,100898.00
2022-08-06T02:03:38.925Z,100893.00
2022-08-06T02:06:22.880Z,100902.00
2022-08-06T02:08:53.790Z,100904.00
2022-08-06T02:12:02.001Z,100922.00
2022-08-06T02:14:13.531Z,100918.00
2022-08-06T02:16:45.129Z,100924.00
2022-08-06T02:19:18.237Z,100921.00
2022-08-06T02:22:01.521Z,100933.00
2022-08-06T02:24:36.595Z,100921.00
2022-08-06T02:27:08.545Z,100926.00
2022-08-06T02:30:05.143Z,100934.00
2022-08-06T02:32:29.410Z,100916.00
2022-08-06T02:34:59.417Z,100931.00
2022-08-06T02:38:01.698Z,100925.00
2022-08-06T02:40:26.094Z,100944.00
2022-08-06T02:43:00.197Z,100945.00
2022-08-06T02:45:38.192Z,100954.00
2022-08-06T02:48:32.072Z,100947.00
2022-08-06T02:51:43.753Z,100947.00
2022-08-06T02:54:04.070Z,100966.00
2022-08-06T02:56:42.781Z,100966.00
2022-08-06T02:59:19.229Z,100964.00
2022-08-06T03:01:53.842Z,100968.00
2022-08-06T03:04:31.976Z,100970.00
2022-08-06T03:07:06.658Z,100982.00
2022-08-06T03:09:57.022Z,100983.00
2022-08-06T03:12:30.593Z,100988.00
2022-08-06T03:15:07.674Z,100976.00
2022-08-06T03:17:42.256Z,100982.00
2022-08-06T03:20:25.648Z,100985.00
2022-08-06T03:22:57.775Z,100985.00
2022-08-06T03:25:30.871Z,100994.00
2022-08-06T03:28:02.410Z,101003.00
2022-08-06T03:30:33.817Z,101001.00
2022-08-06T03:33:07.866Z,101011.00
2022-08-06T03:35:58.545Z,101001.00
2022-08-06T03:38:30.982Z,101008.00
2022-08-06T03:41:01.690Z,101014.00
2022-08-06T03:43:45.816Z,101027.00
2022-08-06T03:46:26.814Z,101019.00
2022-08-06T03:48:57.449Z,101032.00
2022-08-06T03:51:52.537Z,101042.00
2022-08-06T03:54:30.895Z,101046.00
2022-08-06T03:57:07.754Z,101039.00
2022-08-06T03:59:43.514Z,101060.00
2022-08-06T04:02:44.794Z,101056.00
2022-08-06T04:05:16.806Z,101069.00
2022-08-06T04:07:54.454Z,101058.00
2022-08-06T04:10:33.371Z,101062.00
2022-08-06T04:13:40.587Z,101073.00
2022-08-06T04:15:57.966Z,101070.00
2022-08-06T04:18:29.971Z,101061.00
2022-08-06T04:21:21.223Z,101067.00
2022-08-06T04:23:53.795Z,101058.00
2022-08-06T04:26:25.818Z,101073.00
2022-08-06T04:28:57.926Z,101077.00
2022-08-06T04:32:11.746Z,101076.00
2022-08-06T04:34:27.089Z,101086.00
2022-08-06T04:36:59.087Z,101094.00
2022-08-06T04:39:38.548Z,101096.00
2022-08-06T04:42:19.448Z,101109.00
2022-08-06T04:44:59.499Z,101114.00
2022-08-06T04:47:41.987Z,101117.00
2022-08-06T04:50:17.959Z,101123.00
2022-08-06T04:52:52.578Z,101123.00
2022-08-06T04:55:33.617Z,101120.00
2022-08-06T04:58:11.182Z,101120.00
2022-08-06T05:01:00.687Z,101132.00
2022-08-06T05:04:05.385Z,101132.00
2022-08-06T05:06:26.959Z,101130.00
2022-08-06T05:09:02.401Z,101134.00
2022-08-06T05:11:57.305Z,101137.00
2022-08-06T05:14:36.590Z,101141.00
2022-08-06T05:17:08.555Z,101138.00
2022-08-06T05:19:40.639Z,101151.00
2022-08-06T05:22:13.076Z,101151.00
2022-08-06T05:25:02.406Z,101152.00
2022-08-06T05:27:54.478Z,101164.00
2022-08-06T05:30:24.204Z,101175.00
2022-08-06T05:32:57.205Z,101174.00
2022-08-06T05:35:41.319Z,101162.00
2022-08-06T05:38:14.259Z,101173.00
2022-08-06T05:41:00.245Z,101179.00
2022-08-06T05:43:58.280Z,101181.00
2022-08-06T05:46:25.263Z,101180.00
2022-08-06T05:49:00.755Z,101181.00
2022-08-06T05:51:44.941Z,101175.00
2022-08-06T05:54:23.071Z,101192.00
2022-08-06T05:56:56.637Z,101192.00
2022-08-06T05:59:57.649Z,101194.00
2022-08-06T06:02:30.798Z,101206.00
2022-08-06T06:06:16.132Z,101204.00
2022-08-06T06:08:10.577Z,101203.00
2022-08-06T06:10:43.897Z,101194.00
2022-08-06T06:13:24.349Z,101200.00
2022-08-06T06:16:05.045Z,101204.00
2022-08-06T06:18:48.064Z,101206.00
2022-08-06T06:21:34.418Z,101210.00
2022-08-06T06:24:11.260Z,101216.00
2022-08-06T06:26:49.776Z,101224.00
2022-08-06T06:29:33.793Z,101214.00
2022-08-06T06:32:41.866Z,101220.00
2022-08-06T06:35:25.020Z,101218.00
2022-08-06T06:38:10.111Z,101230.00
2022-08-06T06:41:03.021Z,101231.00
2022-08-06T06:43:44.732Z,101238.00
2022-08-06T06:46:36.360Z,101238.00
2022-08-06T06:50:00.640Z,101251.00
2022-08-06T06:52:10.409Z,101235.00
2022-08-06T06:54:45.597Z,101241.00
2022-08-06T06:57:19.359Z,101250.00
2022-08-06T07:00:04.609Z,101253.00
2022-08-06T07:02:47.214Z,101255.00
2022-08-06T07:05:24.040Z,101252.00
2022-08-06T07:08:13.053Z,101252.00
2022-08-06T07:10:43.674Z,101253.00
2022-08-06T07:13:15.561Z,101248.00
2022-08-06T07:15:54.159Z,101252.00
2022-08-06T07:18:28.365Z,101254.00
2022-08-06T07:21:04.004Z,101245.00
2022-08-06T07:24:06.454Z,101249.00
2022-08-06T07:26:25.324Z,101248.00
2022-08-06T07:29:00.368Z,101250.00
2022-08-06T07:31:36.709Z,101246.00
2022-08-06T07:34:09.456Z,101258.00
2022-08-06T07:36:55.427Z,101256.00
2022-08-06T07:39:28.996Z,101246.00
2022-08-06T07:42:10.612Z,101241.00
2022-08-06T07:44:54.308Z,101250.00
2022-08-06T07:47:41.308Z,101241.00
2022-08-06T07:50:22.503Z,101248.00
2022-08-06T07:52:55.623Z,101256.00
2022-08-06T07:55:36.803Z,101261.00
2022-08-06T07:58:07.146Z,101262.00
2022-08-06T08:00:38.848Z,101267.00
2022-08-06T08:03:55.850Z,101261.00
2022-08-06T08:06:24.276Z,101265.00
2022-08-06T08:08:59.402Z,101257.00
2022-08-06T08:11:37.629Z,101253.00
2022-08-06T08:14:22.075Z,101256.00
2022-08-06T08:16:51.855Z,101251.00
2022-08-06T08:19:24.668Z,101256.00
2022-08-06T08:21:53.646Z,101261.00
2022-08-06T08:24:23.632Z,101265.00
2022-08-06T08:27:21.938Z,101267.00
2022-08-06T08:29:54.517Z,101263.00
2022-08-06T08:32:24.302Z,101269.00
2022-08-06T08:34:54.397Z,101266.00
2022-08-06T08:37:24.833Z,101275.00
2022-08-06T08:39:55.669Z,101271.00
2022-08-06T08:42:33.306Z,101268.00
2022-08-06T08:45:05.495Z,101277.00
2022-08-06T08:47:52.133Z,101277.00
2022-08-06T08:50:26.421Z,101277.00
2022-08-06T08:53:01.585Z,101270.00
2022-08-06T08:57:09.877Z,101269.00
2022-08-06T08:58:42.239Z,101267.00
2022-08-06T09:01:51.628Z,101261.00
2022-08-06T09:04:03.543Z,101263.00
2022-08-06T09:06:37.253Z,101264.00
2022-08-06T09:09:16.003Z,101262.00
2022-08-06T09:12:02.553Z,101264.00
2022-08-06T09:14:34.864Z,101265.00
2022-08-06T09:17:05.082Z,101267.00
2022-08-06T09:19:41.825Z,101264.00
2022-08-06T09:22:11.953Z,101262.00
2022-08-06T09:24:41.660Z,101266.00
2022-08-06T09:27:45.176Z,101258.00
2022-08-06T09:30:25.272Z,101261.00
2022-08-06T09:32:54.963Z,101265.00
2022-08-06T09:35:45.102Z,101262.00
2022-08-06T09:38:17.493Z,101272.00
2022-08-06T09:41:06.748Z,101265.00
2022-08-06T09:44:03.212Z,101259.00
2022-08-06T09:46:40.414Z,101272.00
2022-08-06T09:49:45.357Z,101261.00
2022-08-06T09:52:14.259Z,101273.00
2022-08-06T09:54:43.035Z,101256.00
2022-08-06T09:57:11.771Z,101257.00
2022-08-06T09:59:50.646Z,101256.00
2022-08-06T10:02:24.040Z,101262.00
2022-08-06T10:05:17.748Z,101244.00
2022-08-06T10:07:52.776Z,101255.00
2022-08-06T10:10:40.448Z,101255.00
2022-08-06T10:13:22.808Z,101249.00
2022-08-06T10:16:03.929Z,101247.00
2022-08-06T10:18:55.526Z,101241.00
2022-08-06T10:21:26.699Z,101239.00
2022-08-06T10:23:58.958Z,101243.00
2022-08-06T10:26:30.973Z,101240.00
2022-08-06T10:29:07.383Z,101247.00
2022-08-06T10:31:38.620Z,101239.00
2022-08-06T10:34:12.577Z,101234.00
2022-08-06T10:36:50.510Z,101227.00
2022-08-06T10:40:06.996Z,101234.00
2022-08-06T10:42:22.186Z,101225.00
2022-08-06T10:44:53.763Z,101216.00
2022-08-06T10:48:59.893Z,101222.00
2022-08-06T10:50:26.173Z,101217.00
2022-08-06T10:53:03.923Z,101215.00
2022-08-06T10:55:37.444Z,101220.00
2022-08-06T10:58:13.024Z,101216.00
2022-08-06T11:00:45.137Z,101218.00
2022-08-06T11:03:37.140Z,101212.00
2022-08-06T11:06:36.082Z,101216.00
2022-08-06T11:09:22.371Z,101213.00
2022-08-06T11:12:27.403Z,101208.00
2022-08-06T11:14:57.602Z,101211.00
2022-08-06T11:17:27.479Z,101209.00
2022-08-06T11:19:58.678Z,101200.00
2022-08-06T11:22:38.854Z,101204.00
2022-08-06T11:25:26.274Z,101191.00
2022-08-06T11:28:02.930Z,101194.00
2022-08-06T11:30:45.887Z,101196.00
2022-08-06T11:33:16.308Z,101209.00
2022-08-06T11:35:53.369Z,101199.00
2022-08-06T11:39:10.069Z,101202.00
2022-08-06T11:41:55.125Z,101192.00
2022-08-06T11:44:27.570Z,101194.00
2022-08-06T11:47:22.946Z,101204.00
2022-08-06T11:50:03.033Z,101197.00
2022-08-06T11:52:45.262Z,101188.00
2022-08-06T11:55:22.561Z,101191.00
2022-08-06T11:58:07.848Z,101186.00
2022-08-06T12:00:58.037Z,101191.00
2022-08-06T12:03:46.403Z,101193.00
2022-08-06T12:06:26.972Z,101193.00
2022-08-06T12:09:23.900Z,101194.00
2022-08-06T12:12:34.947Z,101189.00
2022-08-06T12:15:11.308Z,101201.00
2022-08-06T12:18:18.870Z,101178.00
2022-08-06T12:20:53.953Z,101190.00
2022-08-06T12:23:30.014Z,101180.00
2022-08-06T12:26:16.810Z,101179.00
2022-08-06T12:29:05.480Z,101168.00
2022-08-06T12:31:48.386Z,101172.00
2022-08-06T12:34:31.018Z,101173.00
2022-08-06T12:37:00.190Z,101166.00
2022-08-06T12:39:43.335Z,101173.00
2022-08-06T12:42:53.842Z,101172.00
2022-08-06T12:46:04.228Z,101169.00
2022-08-06T12:48:13.354Z,101164.00
2022-08-06T12:50:45.839Z,101167.00
2022-08-06T12:53:21.349Z,101154.00
2022-08-06T12:55:55.746Z,101160.00
2022-08-06T12:58:43.031Z,101157.00
2022-08-06T13:02:07.338Z,101162.00
2022-08-06T13:04:10.342Z,101146.00
2022-08-06T13:06:43.255Z,101154.00
2022-08-06T13:09:12.303Z,101152.00
2022-08-06T13:11:41.517Z,101146.00
2022-08-06T13:14:17.526Z,101155.00
2022-08-06T13:16:55.565Z,101158.00
2022-08-06T13:19:33.203Z,101166.00
2022-08-06T13:22:11.617Z,101159.00
2022-08-06T13:25:03.351Z,101158.00
2022-08-06T13:27:37.298Z,101154.00
2022-08-06T13:30:33.282Z,101155.00
2022-08-06T13:33:14.351Z,101149.00
2022-08-06T13:35:43.146Z,101157.00
2022-08-06T13:38:17.049Z,101151.00
2022-08-06T13:41:00.858Z,101152.00
2022-08-06T13:43:42.665Z,101153.00
2022-08-06T13:46:20.300Z,101159.00
2022-08-06T13:49:01.054Z,101151.00
2022-08-06T13:51:35.220Z,101150.00
2022-08-06T13:54:14.199Z,101161.00
2022-08-06T13:56:48.846Z,101165.00
2022-08-06T13:59:21.546Z,101158.00
2022-08-06T14:01:54.931Z,101149.00
2022-08-06T14:04:28.488Z,101143.00
2022-08-06T14:06:58.596Z,101158.00
2022-08-06T14:09:58.077Z,101167.00
2022-08-06T14:12:18.423Z,101166.00
2022-08-06T14:14:50.576Z,101151.00
2022-08-06T14:17:20.705Z,101160.00
2022-08-06T14:20:17.620Z,101148.00
2022-08-06T14:22:42.928Z,101151.00
2022-08-06T14:25:12.019Z,101158.00
2022-08-06T14:27:43.023Z,101155.00
2022-08-06T14:30:22.299Z,101151.00
2022-08-06T14:33:10.099Z,101148.00
2022-08-06T14:35:45.978Z,101150.00
2022-08-06T14:38:20.731Z,101146.00
2022-08-06T14:41:09.847Z,101152.00
2022-08-06T14:43:57.640Z,101137.00
2022-08-06T14:46:29.751Z,101143.00
2022-08-06T14:49:05.748Z,101139.00
2022-08-06T14:52:22.642Z,101141.00
2022-08-06T14:54:32.161Z,101140.00
2022-08-06T14:57:15.020Z,101137.00
2022-08-06T14:59:48.518Z,101132.00
2022-08-06T15:02:18.244Z,101136.00
2022-08-06T15:04:52.105Z,101131.00
2022-08-06T15:07:25.333Z,101129.00
2022-08-06T15:10:06.184Z,101129.00
2022-08-06T15:12:49.966Z,101121.00
2022-08-06T15:15:46.282Z,101120.00
2022-08-06T15:18:25.315Z,101130.00
2022-08-06T15:21:02.525Z,101133.00
2022-08-06T15:23:52.928Z,101119.00
2022-08-06T15:26:42.476Z,101130.00
2022-08-06T15:29:10.629Z,101125.00
2022-08-06T15:31:40.469Z,101131.00
2022-08-06T15:34:12.192Z,101123.00
2022-08-06T15:37:02.938Z,101120.00
2022-08-06T15:39:52.953Z,101122.00
2022-08-06T15:42:24.192Z,101102.00
2022-08-06T15:44:53.305Z,101108.00
2022-08-06T15:47:32.392Z,101108.00
2022-08-06T15:50:14.730Z,101110.00
2022-08-06T15:52:45.350Z,101113.00
2022-08-06T15:55:16.177Z,101110.00
2022-08-06T15:58:05.133Z,101117.00
2022-08-06T16:00:35.931Z,101111.00
2022-08-06T16:03:06.297Z,101126.00
2022-08-06T16:06:09.799Z,101114.00
2022-08-06T16:08:34.783Z,101124.00
2022-08-06T16:11:09.737Z,101120.00
2022-08-06T16:13:39.870Z,101117.00
2022-08-06T16:16:11.100Z,101119.00
2022-08-06T16:18:48.574Z,101122.00
2022-08-06T16:21:19.828Z,101114.00
2022-08-06T16:23:57.702Z,101122.00
2022-08-06T16:26:40.666Z,101127.00
2022-08-06T16:29:15.135Z,101120.00
2022-08-06T16:31:47.214Z,101123.00
2022-08-06T16:34:23.211Z,101124.00
2022-08-06T16:36:59.884Z,101129.00
2022-08-06T16:39:35.656Z,101134.00
2022-08-06T16:42:18.733Z,101123.00
2022-08-06T16:48:18.527Z,101127.00
2022-08-06T16:50:33.713Z,101119.00
2022-08-06T16:54:08.553Z,101127.00
2022-08-06T16:55:56.708Z,101119.00
2022-08-06T16:58:34.437Z,101112.00
2022-08-06T17:02:15.353Z,101120.00
2022-08-06T17:03:58.732Z,101131.00
2022-08-06T17:06:31.419Z,101123.00
2022-08-06T17:09:16.497Z,101125.00
2022-08-06T17:12:00.574Z,101122.00
2022-08-06T17:14:32.668Z,101128.00
2022-08-06T17:17:06.801Z,101131.00
2022-08-06T17:22:29.071Z,101114.00
2022-08-06T17:24:59.427Z,101118.00
2022-08-06T17:30:18.916Z,101121.00
2022-08-06T17:32:52.738Z,101127.00
2022-08-06T17:35:23.468Z,101128.00
2022-08-06T17:38:16.073Z,101125.00
2022-08-06T17:40:49.481Z,101134.00
2022-08-06T17:43:22.940Z,101123.00
2022-08-06T17:46:25.675Z,101130.00
2022-08-06T17:48:56.587Z,101132.00
2022-08-06T17:51:33.112Z,101135.00
2022-08-06T17:54:44.247Z,101138.00
2022-08-06T17:56:51.604Z,101137.00
2022-08-06T17:59:22.460Z,101143.00
2022-08-06T18:01:58.141Z,101149.00
2022-08-06T18:04:35.657Z,101144.00
2022-08-06T18:07:11.721Z,101151.00
2022-08-06T18:10:10.659Z,101150.00
2022-08-06T18:12:48.604Z,101155.00
2022-08-06T18:15:20.143Z,101164.00
2022-08-06T18:18:04.361Z,101159.00
2022-08-06T18:20:38.480Z,101157.00
2022-08-06T18:23:20.634Z,101147.00
2022-08-06T18:25:56.449Z,101160.00
2022-08-06T18:28:34.614Z,101168.00
2022-08-06T18:31:09.653Z,101165.00
2022-08-06T18:33:42.736Z,101169.00
2022-08-06T18:36:14.751Z,101164.00
2022-08-06T18:38:43.257Z,101170.00
2022-08-06T18:41:15.442Z,101160.00
2022-08-06T18:43:49.176Z,101161.00
2022-08-06T18:46:56.740Z,101160.00
2022-08-06T18:49:16.306Z,101173.00
2022-08-06T18:51:47.067Z,101167.00
2022-08-06T18:54:22.733Z,101167.00
2022-08-06T18:56:53.305Z,101174.00
2022-08-06T18:59:28.477Z,101172.00
2022-08-06T19:01:59.827Z,101172.00
2022-08-06T19:04:29.965Z,101171.00
2022-08-06T19:07:00.580Z,101184.00
2022-08-06T19:09:33.777Z,101178.00
2022-08-06T19:12:12.224Z,101184.00
2022-08-06T19:14:44.250Z,101176.00
2022-08-06T19:17:47.981Z,101178.00
2022-08-06T19:20:19.237Z,101173.00
2022-08-06T19:22:54.008Z,101172.00
2022-08-06T19:25:52.813Z,101173.00
2022-08-06T19:28:35.652Z,101178.00
2022-08-06T19:31:11.233Z,101183.00
2022-08-06T19:33:41.381Z,101181.00
2022-08-06T19:36:27.022Z,101176.00
2022-08-06T19:38:59.393Z,101179.00
2022-08-06T19:42:00.503Z,101184.00
2022-08-06T19:44:24.469Z,101180.00
2022-08-06T19:46:58.217Z,101191.00
2022-08-06T19:49:41.173Z,101185.00
2022-08-06T19:52:10.778Z,101196.00
2022-08-06T19:54:41.624Z,101192.00
2022-08-06T19:57:13.372Z,101187.00
2022-08-06T20:00:51.251Z,101190.00
2022-08-06T20:02:33.761Z,101199.00
2022-08-06T20:05:03.718Z,101196.00
2022-08-06T20:08:30.916Z,101201.00
2022-08-06T20:10:35.627Z,101213.00
2022-08-06T20:13:06.257Z,101214.00
2022-08-06T20:15:40.633Z,101219.00
2022-08-06T20:18:14.607Z,101221.00
2022-08-06T20:20:48.046Z,101222.00
2022-08-06T20:23:20.665Z,101228.00
2022-08-06T20:26:09.283Z,101220.00
2022-08-06T20:29:09.357Z,101223.00
2022-08-06T20:31:31.056Z,101231.00
2022-08-06T20:34:01.638Z,101234.00
2022-08-06T20:36:33.684Z,101244.00
2022-08-06T20:39:03.135Z,101245.00
2022-08-06T20:42:02.352Z,101246.00
2022-08-06T20:44:21.109Z,101238.00
2022-08-06T20:47:45.123Z,101248.00
2022-08-06T20:50:02.214Z,101243.00
2022-08-06T20:52:30.090Z,101245.00
2022-08-06T20:54:59.422Z,101246.00
2022-08-06T20:57:37.599Z,101245.00
2022-08-06T21:00:17.572Z,101240.00
2022-08-06T21:02:54.681Z,101245.00
2022-08-06T21:05:38.164Z,101242.00
2022-08-06T21:08:26.337Z,101248.00
2022-08-06T21:10:56.317Z,101249.00
2022-08-06T21:13:35.767Z,101254.00
2022-08-06T21:16:13.304Z,101254.00
2022-08-06T21:18:44.287Z,101255.00
2022-08-06T21:21:17.159Z,101251.00
2022-08-06T21:23:55.835Z,101255.00
2022-08-06T21:26:34.339Z,101250.00
2022-08-06T21:30:07.037Z,101251.00
2022-08-06T21:31:52.844Z,101261.00
2022-08-06T21:34:21.477Z,101259.00
2022-08-06T21:36:51.276Z,101254.00
2022-08-06T21:39:21.870Z,101258.00
2022-08-06T21:41:59.274Z,101252.00
2022-08-06T21:44:34.133Z,101248.00
2022-08-06T21:47:04.708Z,101243.00
2022-08-06T21:50:04.412Z,101252.00
2022-08-06T21:52:28.256Z,101253.00
2022-08-06T21:55:11.763Z,101246.00
2022-08-06T21:57:50.599Z,101250.00
2022-08-06T22:00:39.567Z,101244.00
2022-08-06T22:04:34.610Z,101253.00
2022-08-06T22:06:20.797Z,101260.00
2022-08-06T22:08:54.386Z,101260.00
2022-08-06T22:12:39.521Z,101251.00
2022-08-06T22:14:16.651Z,101247.00
2022-08-06T22:16:46.845Z,101251.00
2022-08-06T22:19:18.245Z,101254.00
2022-08-06T22:21:50.830Z,101260.00
2022-08-06T22:24:22.825Z,101258.00
2022-08-06T22:26:56.497Z,101249.00
2022-08-06T22:29:27.409Z,101260.00
2022-08-06T22:31:59.900Z,101259.00
2022-08-06T22:34:36.552Z,101254.00
2022-08-06T22:37:14.250Z,101255.00
2022-08-06T22:39:46.985Z,101252.00
2022-08-06T22:42:55.982Z,101256.00
2022-08-06T22:45:47.928Z,101260.00
2022-08-06T22:48:07.868Z,101258.00
2022-08-06T22:50:37.675Z,101248.00
2022-08-06T22:54:25.717Z,101249.00
2022-08-06T22:55:56.660Z,101253.00
2022-08-06T22:59:04.399Z,101247.00
2022-08-06T23:02:02.751Z,101249.00
2022-08-06T23:04:04.366Z,101248.00
2022-08-06T23:06:33.030Z,101243.00
2022-08-06T23:09:01.690Z,101240.00
2022-08-06T23:11:31.252Z,101248.00
2022-08-06T23:14:01.153Z,101248.00
2022-08-06T23:16:32.458Z,101249.00
2022-08-06T23:19:01.153Z,101259.00
2022-08-06T23:21:50.089Z,101254.00
2022-08-06T23:24:35.242Z,101246.00
2022-08-06T23:27:07.060Z,101252.00
2022-08-06T23:30:10.563Z,101244.00
2022-08-06T23:32:35.903Z,101248.00
2022-08-06T23:35:35.748Z,101239.00
2022-08-06T23:38:32.313Z,101234.00
2022-08-06T23:40:49.906Z,101238.00
2022-08-06T23:43:19.513Z,101240.00
2022-08-06T23:45:49.601Z,101243.00
2022-08-06T23:48:18.869Z,101244.00
2022-08-06T23:50:52.396Z,101243.00
2022-08-06T23:54:06.613Z,101244.00
2022-08-06T23:56:13.045Z,101228.00
2022-08-06T23:58:48.628Z,101234.00
